sensor_id;sensor_type;location;lat;lon;timestamp;P1;durP1;ratioP1;P2;durP2;ratioP2
24644;SDS011;12780;45.502;9.146;2022-07-06T00:01:30;15.70;;;6.40;;
24644;SDS011;12780;45.502;9.146;2022-07-06T00:03:56;10.25;;;5.80;;
24644;SDS011;12780;45.502;9.146;2022-07-06T00:06:22;13.25;;;6.00;;
24644;SDS011;12780;45.502;9.146;2022-07-06T00:08:48;9.95;;;6.20;;
24644;SDS011;12780;45.502;9.146;2022-07-06T00:11:14;12.85;;;6.03;;
24644;SDS011;12780;45.502;9.146;2022-07-06T00:13:40;15.80;;;5.70;;
24644;SDS011;12780;45.502;9.146;2022-07-06T00:16:06;13.07;;;4.90;;
24644;SDS011;12780;45.502;9.146;2022-07-06T00:18:32;9.85;;;4.60;;
24644;SDS011;12780;45.502;9.146;2022-07-06T00:20:57;16.45;;;3.83;;
24644;SDS011;12780;45.502;9.146;2022-07-06T00:23:23;7.40;;;3.70;;
24644;SDS011;12780;45.502;9.146;2022-07-06T00:25:49;10.30;;;4.20;;
24644;SDS011;12780;45.502;9.146;2022-07-06T00:28:14;11.02;;;3.78;;
24644;SDS011;12780;45.502;9.146;2022-07-06T00:30:40;16.02;;;3.83;;
24644;SDS011;12780;45.502;9.146;2022-07-06T00:33:06;7.35;;;3.25;;
24644;SDS011;12780;45.502;9.146;2022-07-06T00:35:32;10.30;;;3.67;;
24644;SDS011;12780;45.502;9.146;2022-07-06T00:37:58;6.53;;;3.35;;
24644;SDS011;12780;45.502;9.146;2022-07-06T00:40:24;13.32;;;3.30;;
24644;SDS011;12780;45.502;9.146;2022-07-06T00:42:50;7.05;;;3.58;;
24644;SDS011;12780;45.502;9.146;2022-07-06T00:45:16;7.50;;;3.00;;
24644;SDS011;12780;45.502;9.146;2022-07-06T00:47:42;11.82;;;3.13;;
24644;SDS011;12780;45.502;9.146;2022-07-06T00:50:10;6.85;;;2.92;;
24644;SDS011;12780;45.502;9.146;2022-07-06T00:52:56;13.52;;;3.20;;
24644;SDS011;12780;45.502;9.146;2022-07-06T00:55:27;8.90;;;3.05;;
24644;SDS011;12780;45.502;9.146;2022-07-06T00:57:54;6.55;;;3.03;;
24644;SDS011;12780;45.502;9.146;2022-07-06T01:00:22;6.38;;;2.97;;
24644;SDS011;12780;45.502;9.146;2022-07-06T01:02:49;5.03;;;3.15;;
24644;SDS011;12780;45.502;9.146;2022-07-06T01:05:15;11.40;;;3.05;;
24644;SDS011;12780;45.502;9.146;2022-07-06T01:07:42;8.82;;;2.70;;
24644;SDS011;12780;45.502;9.146;2022-07-06T01:10:11;10.07;;;2.80;;
24644;SDS011;12780;45.502;9.146;2022-07-06T01:12:39;5.97;;;2.83;;
24644;SDS011;12780;45.502;9.146;2022-07-06T01:15:07;10.27;;;3.13;;
24644;SDS011;12780;45.502;9.146;2022-07-06T01:17:34;16.38;;;3.10;;
24644;SDS011;12780;45.502;9.146;2022-07-06T01:22:38;10.20;;;2.90;;
24644;SDS011;12780;45.502;9.146;2022-07-06T01:25:04;9.07;;;2.80;;
24644;SDS011;12780;45.502;9.146;2022-07-06T01:27:31;6.78;;;2.95;;
24644;SDS011;12780;45.502;9.146;2022-07-06T01:29:59;9.52;;;2.80;;
24644;SDS011;12780;45.502;9.146;2022-07-06T01:32:25;10.95;;;2.50;;
24644;SDS011;12780;45.502;9.146;2022-07-06T01:34:50;6.38;;;3.13;;
24644;SDS011;12780;45.502;9.146;2022-07-06T01:37:16;7.75;;;2.55;;
24644;SDS011;12780;45.502;9.146;2022-07-06T01:39:42;11.40;;;2.78;;
24644;SDS011;12780;45.502;9.146;2022-07-06T01:42:08;13.18;;;2.53;;
24644;SDS011;12780;45.502;9.146;2022-07-06T01:44:33;6.90;;;2.75;;
24644;SDS011;12780;45.502;9.146;2022-07-06T01:46:59;8.52;;;2.20;;
24644;SDS011;12780;45.502;9.146;2022-07-06T01:49:24;7.82;;;2.92;;
24644;SDS011;12780;45.502;9.146;2022-07-06T01:51:50;3.30;;;2.30;;
24644;SDS011;12780;45.502;9.146;2022-07-06T01:54:15;7.50;;;2.72;;
24644;SDS011;12780;45.502;9.146;2022-07-06T01:56:41;7.32;;;2.38;;
24644;SDS011;12780;45.502;9.146;2022-07-06T01:59:07;5.45;;;2.17;;
24644;SDS011;12780;45.502;9.146;2022-07-06T02:01:32;6.68;;;2.22;;
24644;SDS011;12780;45.502;9.146;2022-07-06T02:03:58;7.93;;;2.22;;
24644;SDS011;12780;45.502;9.146;2022-07-06T02:06:24;5.47;;;2.75;;
24644;SDS011;12780;45.502;9.146;2022-07-06T02:08:49;4.75;;;2.15;;
24644;SDS011;12780;45.502;9.146;2022-07-06T02:11:16;3.97;;;2.00;;
24644;SDS011;12780;45.502;9.146;2022-07-06T02:13:42;3.85;;;2.10;;
24644;SDS011;12780;45.502;9.146;2022-07-06T02:16:08;4.60;;;2.10;;
24644;SDS011;12780;45.502;9.146;2022-07-06T02:18:34;5.60;;;2.35;;
24644;SDS011;12780;45.502;9.146;2022-07-06T02:20:59;5.25;;;2.20;;
24644;SDS011;12780;45.502;9.146;2022-07-06T02:23:25;14.07;;;2.30;;
24644;SDS011;12780;45.502;9.146;2022-07-06T02:25:51;6.10;;;2.47;;
24644;SDS011;12780;45.502;9.146;2022-07-06T02:28:17;5.07;;;2.00;;
24644;SDS011;12780;45.502;9.146;2022-07-06T02:30:42;10.52;;;2.20;;
24644;SDS011;12780;45.502;9.146;2022-07-06T02:33:08;4.20;;;1.83;;
24644;SDS011;12780;45.502;9.146;2022-07-06T02:35:33;9.50;;;1.90;;
24644;SDS011;12780;45.502;9.146;2022-07-06T02:37:59;4.25;;;1.90;;
24644;SDS011;12780;45.502;9.146;2022-07-06T02:40:25;3.22;;;1.98;;
24644;SDS011;12780;45.502;9.146;2022-07-06T02:42:50;3.42;;;1.83;;
24644;SDS011;12780;45.502;9.146;2022-07-06T02:45:16;8.57;;;2.17;;
24644;SDS011;12780;45.502;9.146;2022-07-06T02:47:42;5.00;;;2.10;;
24644;SDS011;12780;45.502;9.146;2022-07-06T02:50:07;4.25;;;2.08;;
24644;SDS011;12780;45.502;9.146;2022-07-06T02:52:33;6.72;;;1.88;;
24644;SDS011;12780;45.502;9.146;2022-07-06T02:54:58;6.90;;;1.95;;
24644;SDS011;12780;45.502;9.146;2022-07-06T02:57:24;6.05;;;2.10;;
24644;SDS011;12780;45.502;9.146;2022-07-06T02:59:50;5.78;;;2.08;;
24644;SDS011;12780;45.502;9.146;2022-07-06T03:02:16;7.15;;;2.17;;
24644;SDS011;12780;45.502;9.146;2022-07-06T03:04:42;5.78;;;2.40;;
24644;SDS011;12780;45.502;9.146;2022-07-06T03:07:08;6.22;;;2.20;;
24644;SDS011;12780;45.502;9.146;2022-07-06T03:09:33;5.60;;;2.28;;
24644;SDS011;12780;45.502;9.146;2022-07-06T03:11:59;8.00;;;2.30;;
24644;SDS011;12780;45.502;9.146;2022-07-06T03:14:25;5.95;;;2.45;;
24644;SDS011;12780;45.502;9.146;2022-07-06T03:16:51;9.52;;;2.35;;
24644;SDS011;12780;45.502;9.146;2022-07-06T03:19:17;8.77;;;2.42;;
24644;SDS011;12780;45.502;9.146;2022-07-06T03:21:43;5.00;;;2.75;;
24644;SDS011;12780;45.502;9.146;2022-07-06T03:24:08;6.03;;;2.17;;
24644;SDS011;12780;45.502;9.146;2022-07-06T03:26:34;10.02;;;2.92;;
24644;SDS011;12780;45.502;9.146;2022-07-06T03:28:59;9.27;;;2.53;;
24644;SDS011;12780;45.502;9.146;2022-07-06T03:31:25;6.22;;;2.30;;
24644;SDS011;12780;45.502;9.146;2022-07-06T03:33:51;6.05;;;2.20;;
24644;SDS011;12780;45.502;9.146;2022-07-06T03:36:17;3.00;;;1.80;;
24644;SDS011;12780;45.502;9.146;2022-07-06T03:38:43;3.88;;;2.30;;
24644;SDS011;12780;45.502;9.146;2022-07-06T03:41:08;4.03;;;2.17;;
24644;SDS011;12780;45.502;9.146;2022-07-06T03:43:34;4.15;;;2.20;;
24644;SDS011;12780;45.502;9.146;2022-07-06T03:46:00;6.72;;;2.15;;
24644;SDS011;12780;45.502;9.146;2022-07-06T03:48:25;7.20;;;2.08;;
24644;SDS011;12780;45.502;9.146;2022-07-06T03:50:51;4.53;;;2.00;;
24644;SDS011;12780;45.502;9.146;2022-07-06T03:53:17;4.55;;;2.00;;
24644;SDS011;12780;45.502;9.146;2022-07-06T03:55:42;3.28;;;1.73;;
24644;SDS011;12780;45.502;9.146;2022-07-06T03:58:08;4.65;;;2.03;;
24644;SDS011;12780;45.502;9.146;2022-07-06T04:00:34;3.22;;;1.50;;
24644;SDS011;12780;45.502;9.146;2022-07-06T04:03:00;6.85;;;1.92;;
24644;SDS011;12780;45.502;9.146;2022-07-06T04:05:26;4.63;;;2.13;;
24644;SDS011;12780;45.502;9.146;2022-07-06T04:07:51;3.75;;;1.90;;
24644;SDS011;12780;45.502;9.146;2022-07-06T04:10:17;5.25;;;2.15;;
24644;SDS011;12780;45.502;9.146;2022-07-06T04:12:43;4.90;;;2.25;;
24644;SDS011;12780;45.502;9.146;2022-07-06T04:15:09;2.95;;;1.88;;
24644;SDS011;12780;45.502;9.146;2022-07-06T04:17:36;3.33;;;1.80;;
24644;SDS011;12780;45.502;9.146;2022-07-06T04:20:17;5.82;;;1.75;;
24644;SDS011;12780;45.502;9.146;2022-07-06T04:22:43;3.70;;;1.83;;
24644;SDS011;12780;45.502;9.146;2022-07-06T04:25:09;2.78;;;1.58;;
24644;SDS011;12780;45.502;9.146;2022-07-06T04:27:35;7.00;;;2.03;;
24644;SDS011;12780;45.502;9.146;2022-07-06T04:30:01;6.00;;;1.85;;
24644;SDS011;12780;45.502;9.146;2022-07-06T04:32:28;6.47;;;1.80;;
24644;SDS011;12780;45.502;9.146;2022-07-06T04:34:53;6.07;;;2.05;;
24644;SDS011;12780;45.502;9.146;2022-07-06T04:37:19;2.15;;;1.40;;
24644;SDS011;12780;45.502;9.146;2022-07-06T04:39:45;7.80;;;1.88;;
24644;SDS011;12780;45.502;9.146;2022-07-06T04:42:10;2.58;;;1.83;;
24644;SDS011;12780;45.502;9.146;2022-07-06T04:44:36;2.50;;;1.77;;
24644;SDS011;12780;45.502;9.146;2022-07-06T04:47:02;4.18;;;2.00;;
24644;SDS011;12780;45.502;9.146;2022-07-06T04:49:27;6.60;;;1.88;;
24644;SDS011;12780;45.502;9.146;2022-07-06T04:51:53;3.90;;;2.00;;
24644;SDS011;12780;45.502;9.146;2022-07-06T04:54:19;3.88;;;2.00;;
24644;SDS011;12780;45.502;9.146;2022-07-06T04:56:44;4.28;;;2.10;;
24644;SDS011;12780;45.502;9.146;2022-07-06T04:59:11;5.60;;;2.08;;
24644;SDS011;12780;45.502;9.146;2022-07-06T05:01:37;4.75;;;2.00;;
24644;SDS011;12780;45.502;9.146;2022-07-06T05:04:03;3.75;;;1.73;;
24644;SDS011;12780;45.502;9.146;2022-07-06T05:06:29;2.60;;;1.80;;
24644;SDS011;12780;45.502;9.146;2022-07-06T05:08:54;3.50;;;2.00;;
24644;SDS011;12780;45.502;9.146;2022-07-06T05:11:20;3.28;;;1.88;;
24644;SDS011;12780;45.502;9.146;2022-07-06T05:13:46;4.18;;;1.98;;
24644;SDS011;12780;45.502;9.146;2022-07-06T05:16:11;4.18;;;2.10;;
24644;SDS011;12780;45.502;9.146;2022-07-06T05:18:37;6.10;;;1.98;;
24644;SDS011;12780;45.502;9.146;2022-07-06T05:21:02;6.22;;;1.80;;
24644;SDS011;12780;45.502;9.146;2022-07-06T05:23:28;9.07;;;2.05;;
24644;SDS011;12780;45.502;9.146;2022-07-06T05:25:54;3.28;;;1.95;;
24644;SDS011;12780;45.502;9.146;2022-07-06T05:28:19;7.53;;;1.83;;
24644;SDS011;12780;45.502;9.146;2022-07-06T05:30:45;7.10;;;1.90;;
24644;SDS011;12780;45.502;9.146;2022-07-06T05:33:11;7.68;;;2.00;;
24644;SDS011;12780;45.502;9.146;2022-07-06T05:35:36;2.90;;;1.70;;
24644;SDS011;12780;45.502;9.146;2022-07-06T05:38:02;2.65;;;1.75;;
24644;SDS011;12780;45.502;9.146;2022-07-06T05:40:27;11.60;;;2.13;;
24644;SDS011;12780;45.502;9.146;2022-07-06T05:42:53;3.00;;;1.83;;
24644;SDS011;12780;45.502;9.146;2022-07-06T05:45:19;3.97;;;1.70;;
24644;SDS011;12780;45.502;9.146;2022-07-06T05:47:45;5.20;;;1.88;;
24644;SDS011;12780;45.502;9.146;2022-07-06T05:50:29;6.43;;;1.85;;
24644;SDS011;12780;45.502;9.146;2022-07-06T05:52:59;4.25;;;1.85;;
24644;SDS011;12780;45.502;9.146;2022-07-06T05:55:26;3.75;;;1.92;;
24644;SDS011;12780;45.502;9.146;2022-07-06T05:57:52;3.65;;;1.80;;
24644;SDS011;12780;45.502;9.146;2022-07-06T06:00:21;4.35;;;1.90;;
24644;SDS011;12780;45.502;9.146;2022-07-06T06:02:48;5.82;;;1.80;;
24644;SDS011;12780;45.502;9.146;2022-07-06T06:05:14;3.38;;;1.98;;
24644;SDS011;12780;45.502;9.146;2022-07-06T06:07:40;3.42;;;1.80;;
24644;SDS011;12780;45.502;9.146;2022-07-06T06:10:07;4.35;;;1.60;;
24644;SDS011;12780;45.502;9.146;2022-07-06T06:12:34;7.00;;;1.85;;
24644;SDS011;12780;45.502;9.146;2022-07-06T06:15:00;2.75;;;1.95;;
24644;SDS011;12780;45.502;9.146;2022-07-06T06:17:26;3.60;;;1.85;;
24644;SDS011;12780;45.502;9.146;2022-07-06T06:19:52;4.15;;;2.00;;
24644;SDS011;12780;45.502;9.146;2022-07-06T06:22:18;4.35;;;2.10;;
24644;SDS011;12780;45.502;9.146;2022-07-06T06:24:44;4.35;;;2.40;;
24644;SDS011;12780;45.502;9.146;2022-07-06T06:27:10;5.20;;;2.20;;
24644;SDS011;12780;45.502;9.146;2022-07-06T06:29:36;4.50;;;2.20;;
24644;SDS011;12780;45.502;9.146;2022-07-06T06:32:02;4.65;;;2.20;;
24644;SDS011;12780;45.502;9.146;2022-07-06T06:34:29;7.28;;;2.20;;
24644;SDS011;12780;45.502;9.146;2022-07-06T06:36:54;4.57;;;2.15;;
24644;SDS011;12780;45.502;9.146;2022-07-06T06:39:20;4.30;;;2.13;;
24644;SDS011;12780;45.502;9.146;2022-07-06T06:41:45;4.30;;;2.10;;
24644;SDS011;12780;45.502;9.146;2022-07-06T06:44:11;8.73;;;2.20;;
24644;SDS011;12780;45.502;9.146;2022-07-06T06:46:36;5.22;;;2.30;;
24644;SDS011;12780;45.502;9.146;2022-07-06T06:49:03;7.00;;;2.03;;
24644;SDS011;12780;45.502;9.146;2022-07-06T06:51:28;6.40;;;2.30;;
24644;SDS011;12780;45.502;9.146;2022-07-06T06:53:54;2.90;;;1.92;;
24644;SDS011;12780;45.502;9.146;2022-07-06T06:56:20;5.03;;;2.20;;
24644;SDS011;12780;45.502;9.146;2022-07-06T06:58:45;6.22;;;2.30;;
24644;SDS011;12780;45.502;9.146;2022-07-06T07:01:11;5.72;;;2.22;;
24644;SDS011;12780;45.502;9.146;2022-07-06T07:03:37;4.85;;;2.00;;
24644;SDS011;12780;45.502;9.146;2022-07-06T07:06:02;6.63;;;2.00;;
24644;SDS011;12780;45.502;9.146;2022-07-06T07:08:28;6.20;;;2.00;;
24644;SDS011;12780;45.502;9.146;2022-07-06T07:10:53;5.57;;;2.22;;
24644;SDS011;12780;45.502;9.146;2022-07-06T07:13:19;5.03;;;1.98;;
24644;SDS011;12780;45.502;9.146;2022-07-06T07:15:45;5.35;;;1.83;;
24644;SDS011;12780;45.502;9.146;2022-07-06T07:18:10;6.18;;;1.90;;
24644;SDS011;12780;45.502;9.146;2022-07-06T07:20:36;7.93;;;2.28;;
24644;SDS011;12780;45.502;9.146;2022-07-06T07:23:02;7.28;;;1.88;;
24644;SDS011;12780;45.502;9.146;2022-07-06T07:25:27;4.95;;;1.88;;
24644;SDS011;12780;45.502;9.146;2022-07-06T07:27:53;4.50;;;2.15;;
24644;SDS011;12780;45.502;9.146;2022-07-06T07:30:20;5.47;;;2.03;;
24644;SDS011;12780;45.502;9.146;2022-07-06T07:32:46;19.48;;;3.00;;
24644;SDS011;12780;45.502;9.146;2022-07-06T07:35:12;6.28;;;2.15;;
24644;SDS011;12780;45.502;9.146;2022-07-06T07:37:37;8.15;;;2.17;;
24644;SDS011;12780;45.502;9.146;2022-07-06T07:40:03;9.10;;;2.17;;
24644;SDS011;12780;45.502;9.146;2022-07-06T07:42:30;6.20;;;2.30;;
24644;SDS011;12780;45.502;9.146;2022-07-06T07:44:56;6.13;;;2.05;;
24644;SDS011;12780;45.502;9.146;2022-07-06T07:47:22;4.25;;;2.10;;
24644;SDS011;12780;45.502;9.146;2022-07-06T07:49:47;5.35;;;2.30;;
24644;SDS011;12780;45.502;9.146;2022-07-06T07:52:13;9.65;;;2.25;;
24644;SDS011;12780;45.502;9.146;2022-07-06T07:54:39;8.43;;;2.42;;
24644;SDS011;12780;45.502;9.146;2022-07-06T07:57:05;6.75;;;2.40;;
24644;SDS011;12780;45.502;9.146;2022-07-06T07:59:30;7.40;;;2.45;;
24644;SDS011;12780;45.502;9.146;2022-07-06T08:01:56;6.75;;;2.38;;
24644;SDS011;12780;45.502;9.146;2022-07-06T08:04:22;5.50;;;2.40;;
24644;SDS011;12780;45.502;9.146;2022-07-06T08:06:47;9.52;;;2.83;;
24644;SDS011;12780;45.502;9.146;2022-07-06T08:09:13;6.72;;;2.30;;
24644;SDS011;12780;45.502;9.146;2022-07-06T08:11:40;8.55;;;2.58;;
24644;SDS011;12780;45.502;9.146;2022-07-06T08:14:06;10.52;;;2.50;;
24644;SDS011;12780;45.502;9.146;2022-07-06T08:16:32;8.23;;;2.40;;
24644;SDS011;12780;45.502;9.146;2022-07-06T08:18:57;6.20;;;2.28;;
24644;SDS011;12780;45.502;9.146;2022-07-06T08:21:23;6.65;;;2.58;;
24644;SDS011;12780;45.502;9.146;2022-07-06T08:23:50;7.90;;;2.72;;
24644;SDS011;12780;45.502;9.146;2022-07-06T08:26:15;5.35;;;2.58;;
24644;SDS011;12780;45.502;9.146;2022-07-06T08:28:41;5.88;;;2.95;;
24644;SDS011;12780;45.502;9.146;2022-07-06T08:31:07;5.38;;;2.80;;
24644;SDS011;12780;45.502;9.146;2022-07-06T08:33:33;3.67;;;2.75;;
24644;SDS011;12780;45.502;9.146;2022-07-06T08:35:58;5.63;;;2.50;;
24644;SDS011;12780;45.502;9.146;2022-07-06T08:38:24;5.65;;;2.83;;
24644;SDS011;12780;45.502;9.146;2022-07-06T08:40:50;8.52;;;2.40;;
24644;SDS011;12780;45.502;9.146;2022-07-06T08:43:16;8.38;;;2.30;;
24644;SDS011;12780;45.502;9.146;2022-07-06T08:45:42;3.50;;;2.20;;
24644;SDS011;12780;45.502;9.146;2022-07-06T08:48:11;4.82;;;2.40;;
24644;SDS011;12780;45.502;9.146;2022-07-06T08:50:37;5.25;;;2.08;;
24644;SDS011;12780;45.502;9.146;2022-07-06T08:53:03;2.90;;;1.98;;
24644;SDS011;12780;45.502;9.146;2022-07-06T08:55:30;11.48;;;2.58;;
24644;SDS011;12780;45.502;9.146;2022-07-06T08:57:56;6.47;;;2.22;;
24644;SDS011;12780;45.502;9.146;2022-07-06T09:00:25;4.43;;;2.00;;
24644;SDS011;12780;45.502;9.146;2022-07-06T09:02:51;5.43;;;2.20;;
24644;SDS011;12780;45.502;9.146;2022-07-06T09:05:19;5.18;;;2.10;;
24644;SDS011;12780;45.502;9.146;2022-07-06T09:07:49;3.97;;;1.65;;
24644;SDS011;12780;45.502;9.146;2022-07-06T09:10:19;4.57;;;1.98;;
24644;SDS011;12780;45.502;9.146;2022-07-06T09:12:46;5.43;;;2.10;;
24644;SDS011;12780;45.502;9.146;2022-07-06T09:15:13;7.72;;;2.08;;
24644;SDS011;12780;45.502;9.146;2022-07-06T09:17:39;6.88;;;2.00;;
24644;SDS011;12780;45.502;9.146;2022-07-06T09:20:06;8.50;;;1.95;;
24644;SDS011;12780;45.502;9.146;2022-07-06T09:22:36;6.10;;;2.00;;
24644;SDS011;12780;45.502;9.146;2022-07-06T09:25:20;6.47;;;1.90;;
24644;SDS011;12780;45.502;9.146;2022-07-06T09:27:47;3.63;;;1.75;;
24644;SDS011;12780;45.502;9.146;2022-07-06T09:30:15;3.90;;;1.60;;
24644;SDS011;12780;45.502;9.146;2022-07-06T09:32:42;8.57;;;1.95;;
24644;SDS011;12780;45.502;9.146;2022-07-06T09:35:31;1.90;;;1.60;;
24644;SDS011;12780;45.502;9.146;2022-07-06T09:40:38;5.13;;;1.40;;
24644;SDS011;12780;45.502;9.146;2022-07-06T09:45:51;4.00;;;1.50;;
24644;SDS011;12780;45.502;9.146;2022-07-06T09:48:22;4.88;;;1.80;;
24644;SDS011;12780;45.502;9.146;2022-07-06T09:50:50;3.70;;;1.80;;
24644;SDS011;12780;45.502;9.146;2022-07-06T09:53:18;2.75;;;1.80;;
24644;SDS011;12780;45.502;9.146;2022-07-06T09:55:48;4.78;;;1.85;;
24644;SDS011;12780;45.502;9.146;2022-07-06T09:58:15;5.43;;;2.00;;
24644;SDS011;12780;45.502;9.146;2022-07-06T10:00:42;7.90;;;1.80;;
24644;SDS011;12780;45.502;9.146;2022-07-06T10:03:08;3.38;;;1.73;;
24644;SDS011;12780;45.502;9.146;2022-07-06T10:05:37;7.63;;;1.90;;
24644;SDS011;12780;45.502;9.146;2022-07-06T10:08:05;8.48;;;2.08;;
24644;SDS011;12780;45.502;9.146;2022-07-06T10:10:34;2.47;;;1.70;;
24644;SDS011;12780;45.502;9.146;2022-07-06T10:13:00;3.72;;;1.92;;
24644;SDS011;12780;45.502;9.146;2022-07-06T10:15:28;7.47;;;2.00;;
24644;SDS011;12780;45.502;9.146;2022-07-06T10:17:58;7.32;;;2.67;;
24644;SDS011;12780;45.502;9.146;2022-07-06T10:20:29;6.68;;;2.10;;
24644;SDS011;12780;45.502;9.146;2022-07-06T10:22:58;4.93;;;2.10;;
24644;SDS011;12780;45.502;9.146;2022-07-06T10:25:25;3.83;;;1.83;;
24644;SDS011;12780;45.502;9.146;2022-07-06T10:27:52;8.63;;;1.90;;
24644;SDS011;12780;45.502;9.146;2022-07-06T10:30:18;9.40;;;2.95;;
24644;SDS011;12780;45.502;9.146;2022-07-06T10:32:46;3.90;;;1.67;;
24644;SDS011;12780;45.502;9.146;2022-07-06T10:35:13;6.55;;;1.90;;
24644;SDS011;12780;45.502;9.146;2022-07-06T10:37:40;4.40;;;2.28;;
24644;SDS011;12780;45.502;9.146;2022-07-06T10:40:06;4.57;;;1.98;;
24644;SDS011;12780;45.502;9.146;2022-07-06T10:50:36;3.03;;;1.95;;
24644;SDS011;12780;45.502;9.146;2022-07-06T10:53:02;2.40;;;2.03;;
24644;SDS011;12780;45.502;9.146;2022-07-06T10:55:36;5.18;;;2.00;;
24644;SDS011;12780;45.502;9.146;2022-07-06T10:58:03;4.60;;;1.90;;
24644;SDS011;12780;45.502;9.146;2022-07-06T11:03:31;4.95;;;2.28;;
24644;SDS011;12780;45.502;9.146;2022-07-06T11:06:06;13.90;;;2.47;;
24644;SDS011;12780;45.502;9.146;2022-07-06T11:11:15;6.07;;;2.55;;
24644;SDS011;12780;45.502;9.146;2022-07-06T11:13:43;3.75;;;2.08;;
24644;SDS011;12780;45.502;9.146;2022-07-06T11:16:13;6.50;;;2.35;;
24644;SDS011;12780;45.502;9.146;2022-07-06T11:18:40;5.13;;;2.35;;
24644;SDS011;12780;45.502;9.146;2022-07-06T11:23:42;4.22;;;2.10;;
24644;SDS011;12780;45.502;9.146;2022-07-06T11:26:10;6.97;;;2.17;;
24644;SDS011;12780;45.502;9.146;2022-07-06T11:28:37;5.90;;;2.33;;
24644;SDS011;12780;45.502;9.146;2022-07-06T11:31:03;9.32;;;2.88;;
24644;SDS011;12780;45.502;9.146;2022-07-06T11:33:29;7.30;;;2.10;;
24644;SDS011;12780;45.502;9.146;2022-07-06T11:36:14;2.63;;;1.92;;
24644;SDS011;12780;45.502;9.146;2022-07-06T11:38:45;5.22;;;2.40;;
24644;SDS011;12780;45.502;9.146;2022-07-06T11:41:12;4.50;;;2.17;;
24644;SDS011;12780;45.502;9.146;2022-07-06T11:43:40;3.95;;;1.92;;
24644;SDS011;12780;45.502;9.146;2022-07-06T11:46:23;3.33;;;2.05;;
24644;SDS011;12780;45.502;9.146;2022-07-06T11:48:52;4.15;;;2.22;;
24644;SDS011;12780;45.502;9.146;2022-07-06T11:51:21;9.88;;;1.95;;
24644;SDS011;12780;45.502;9.146;2022-07-06T11:53:50;8.38;;;2.22;;
24644;SDS011;12780;45.502;9.146;2022-07-06T11:58:50;6.20;;;2.90;;
24644;SDS011;12780;45.502;9.146;2022-07-06T12:01:17;4.78;;;2.03;;
24644;SDS011;12780;45.502;9.146;2022-07-06T12:03:43;3.63;;;2.28;;
24644;SDS011;12780;45.502;9.146;2022-07-06T12:06:17;7.35;;;2.50;;
24644;SDS011;12780;45.502;9.146;2022-07-06T12:08:51;4.55;;;1.92;;
24644;SDS011;12780;45.502;9.146;2022-07-06T12:11:28;5.32;;;1.80;;
24644;SDS011;12780;45.502;9.146;2022-07-06T12:13:59;8.75;;;1.90;;
24644;SDS011;12780;45.502;9.146;2022-07-06T12:16:38;2.95;;;1.63;;
24644;SDS011;12780;45.502;9.146;2022-07-06T12:19:04;3.83;;;1.77;;
24644;SDS011;12780;45.502;9.146;2022-07-06T12:21:31;3.97;;;1.95;;
24644;SDS011;12780;45.502;9.146;2022-07-06T12:23:58;6.63;;;1.98;;
24644;SDS011;12780;45.502;9.146;2022-07-06T12:26:25;5.30;;;2.33;;
24644;SDS011;12780;45.502;9.146;2022-07-06T12:29:07;5.05;;;2.10;;
24644;SDS011;12780;45.502;9.146;2022-07-06T12:34:04;4.45;;;1.80;;
24644;SDS011;12780;45.502;9.146;2022-07-06T12:36:31;5.63;;;1.90;;
24644;SDS011;12780;45.502;9.146;2022-07-06T12:39:09;4.88;;;2.10;;
24644;SDS011;12780;45.502;9.146;2022-07-06T12:41:36;6.20;;;1.90;;
24644;SDS011;12780;45.502;9.146;2022-07-06T12:44:05;3.80;;;1.98;;
24644;SDS011;12780;45.502;9.146;2022-07-06T12:46:33;2.55;;;1.98;;
24644;SDS011;12780;45.502;9.146;2022-07-06T12:49:10;2.72;;;1.88;;
24644;SDS011;12780;45.502;9.146;2022-07-06T12:54:24;6.88;;;2.88;;
24644;SDS011;12780;45.502;9.146;2022-07-06T12:59:55;4.05;;;2.13;;
24644;SDS011;12780;45.502;9.146;2022-07-06T13:02:26;2.88;;;1.85;;
24644;SDS011;12780;45.502;9.146;2022-07-06T13:05:02;3.92;;;1.70;;
24644;SDS011;12780;45.502;9.146;2022-07-06T13:07:30;3.42;;;2.00;;
24644;SDS011;12780;45.502;9.146;2022-07-06T13:09:57;5.18;;;1.85;;
24644;SDS011;12780;45.502;9.146;2022-07-06T13:12:23;6.28;;;1.88;;
24644;SDS011;12780;45.502;9.146;2022-07-06T13:14:49;3.60;;;1.92;;
24644;SDS011;12780;45.502;9.146;2022-07-06T13:17:16;4.68;;;1.90;;
24644;SDS011;12780;45.502;9.146;2022-07-06T13:19:42;3.88;;;1.95;;
24644;SDS011;12780;45.502;9.146;2022-07-06T13:22:08;7.18;;;2.50;;
24644;SDS011;12780;45.502;9.146;2022-07-06T13:24:34;3.42;;;2.03;;
24644;SDS011;12780;45.502;9.146;2022-07-06T13:27:00;5.15;;;2.10;;
24644;SDS011;12780;45.502;9.146;2022-07-06T13:29:26;6.97;;;2.20;;
24644;SDS011;12780;45.502;9.146;2022-07-06T13:31:52;5.43;;;1.73;;
24644;SDS011;12780;45.502;9.146;2022-07-06T13:34:18;5.72;;;2.10;;
24644;SDS011;12780;45.502;9.146;2022-07-06T13:36:45;2.60;;;1.90;;
24644;SDS011;12780;45.502;9.146;2022-07-06T13:39:11;4.25;;;2.03;;
24644;SDS011;12780;45.502;9.146;2022-07-06T13:41:36;3.13;;;1.90;;
24644;SDS011;12780;45.502;9.146;2022-07-06T13:44:02;4.40;;;1.70;;
24644;SDS011;12780;45.502;9.146;2022-07-06T13:46:29;6.80;;;2.20;;
24644;SDS011;12780;45.502;9.146;2022-07-06T13:48:55;8.00;;;2.13;;
24644;SDS011;12780;45.502;9.146;2022-07-06T13:51:22;2.53;;;2.08;;
24644;SDS011;12780;45.502;9.146;2022-07-06T13:53:49;4.53;;;1.92;;
24644;SDS011;12780;45.502;9.146;2022-07-06T13:56:15;3.28;;;1.90;;
24644;SDS011;12780;45.502;9.146;2022-07-06T13:58:42;5.82;;;1.83;;
24644;SDS011;12780;45.502;9.146;2022-07-06T14:01:08;4.28;;;1.88;;
24644;SDS011;12780;45.502;9.146;2022-07-06T14:03:34;2.33;;;1.70;;
24644;SDS011;12780;45.502;9.146;2022-07-06T14:06:02;5.28;;;1.90;;
24644;SDS011;12780;45.502;9.146;2022-07-06T14:08:28;3.42;;;1.90;;
24644;SDS011;12780;45.502;9.146;2022-07-06T14:10:55;4.82;;;2.00;;
24644;SDS011;12780;45.502;9.146;2022-07-06T14:13:21;3.45;;;1.80;;
24644;SDS011;12780;45.502;9.146;2022-07-06T14:15:47;4.90;;;1.80;;
24644;SDS011;12780;45.502;9.146;2022-07-06T14:18:13;2.85;;;1.90;;
24644;SDS011;12780;45.502;9.146;2022-07-06T14:20:39;3.22;;;2.00;;
24644;SDS011;12780;45.502;9.146;2022-07-06T14:23:06;2.40;;;1.98;;
24644;SDS011;12780;45.502;9.146;2022-07-06T14:25:32;4.13;;;1.65;;
24644;SDS011;12780;45.502;9.146;2022-07-06T14:27:58;9.75;;;2.33;;
24644;SDS011;12780;45.502;9.146;2022-07-06T14:30:24;7.05;;;2.13;;
24644;SDS011;12780;45.502;9.146;2022-07-06T14:32:50;3.03;;;2.20;;
24644;SDS011;12780;45.502;9.146;2022-07-06T14:35:16;4.00;;;2.95;;
24644;SDS011;12780;45.502;9.146;2022-07-06T14:37:42;5.82;;;1.90;;
24644;SDS011;12780;45.502;9.146;2022-07-06T14:40:08;2.35;;;1.70;;
24644;SDS011;12780;45.502;9.146;2022-07-06T14:42:34;3.15;;;1.77;;
24644;SDS011;12780;45.502;9.146;2022-07-06T14:45:00;4.32;;;1.73;;
24644;SDS011;12780;45.502;9.146;2022-07-06T14:47:25;2.70;;;1.67;;
24644;SDS011;12780;45.502;9.146;2022-07-06T14:49:51;7.25;;;2.13;;
24644;SDS011;12780;45.502;9.146;2022-07-06T14:52:17;3.72;;;1.80;;
24644;SDS011;12780;45.502;9.146;2022-07-06T14:54:43;5.00;;;2.03;;
24644;SDS011;12780;45.502;9.146;2022-07-06T14:57:09;3.85;;;1.88;;
24644;SDS011;12780;45.502;9.146;2022-07-06T14:59:35;2.70;;;2.10;;
24644;SDS011;12780;45.502;9.146;2022-07-06T15:02:01;2.95;;;1.90;;
24644;SDS011;12780;45.502;9.146;2022-07-06T15:04:27;6.30;;;1.80;;
24644;SDS011;12780;45.502;9.146;2022-07-06T15:06:53;7.20;;;2.05;;
24644;SDS011;12780;45.502;9.146;2022-07-06T15:09:19;5.38;;;2.45;;
24644;SDS011;12780;45.502;9.146;2022-07-06T15:11:45;5.35;;;2.00;;
24644;SDS011;12780;45.502;9.146;2022-07-06T15:14:11;4.18;;;2.00;;
24644;SDS011;12780;45.502;9.146;2022-07-06T15:16:37;7.45;;;1.70;;
24644;SDS011;12780;45.502;9.146;2022-07-06T15:19:03;5.80;;;2.10;;